Bei Facebook empfehlenBei Twitter postenGoogle plusPinterest

Das Wetter im Erzgebirge am 24.12.2014

Wetter und Klima am 24.12.2014 Holzhau im Erzgebirge (630m ü.NN)
Letzte gemessene Temperatur und Uhrzeit der Messung23:45:00 Uhr5.20 °C
Temperatur (Maximum / Höchstwert) und Uhrzeit der Messung00:45:00 Uhr6.40 °C
Temperatur (Minimum / Tiefstwert) und Uhrzeit der Messung11:15:002.40 °C
Errechneter Absolutwert der Temperaturschwankungen zwischen Tmin und Tmax des Tages4.00 K
Errechnete Tagesmitteltemperatur4.41146 °C
Gesamt - Niederschlag des Tages (in flüssiger Form)0.52 Liter / m²
Luftdruck (Maximum / Höchstwert) und Zeitpunkt der Messung00:15:00 Uhr1014.70 hPa
Luftdruck (Minimum / Tiefstwert) und Zeitpunkt der Messung21:00:00 Uhr1011.50 hPa
Errechneter Absolutwert der Luftdruckschwankungen des Tages3.20 hPa
Höchste gemessene Windgeschwindigkeit und Uhrzeit der Messung13:30:00 Uhr20.16 km/h
Errechnete Windhäufigkeit in Relation zu den Messwerten des Tages69.79167 %
Niedrigste Windkühle (Windchill) und Zeitpunkt der Messung10:45:00 Uhr-1.40 °C
Taupunkt (Maximum / Höchstwert) und Uhrzeit der Messung00:15:00 Uhr4.10 °C
Taupunkt (Minimum / Tiefstwert) und Uhrzeit der Messung11:15:000.10 °C
Anzahl der automatisch eingelesenen Messwerte 96

Detaillierte Wetter- und Klima- Messwerte für den 24.12.2014 in Holzhau im Erzgebirge (630m ü.NN)
ZeitTemperaturLuftdruckRel. LuftfeuchteWindWindrichtungWindchillTaupunktNiederschlag l/m²
23:45:005.20 °C1011.80 hPa90.00 %3.70 °C0.52
23:30:005.20 °C1011.90 hPa90.00 %12.24 km/hW2.50 °C3.70 °C0.52
23:15:005.30 °C1011.90 hPa90.00 %3.80 °C0.52
23:00:005.30 °C1011.90 hPa90.00 %11.88 km/hW2.60 °C3.80 °C0.52
22:45:005.30 °C1011.70 hPa90.00 %10.08 km/hW3.00 °C3.80 °C0.52
22:30:005.30 °C1011.90 hPa90.00 %14.04 km/hWNW2.30 °C3.80 °C0.52
22:15:005.30 °C1011.90 hPa90.00 %3.80 °C0.52
22:00:005.20 °C1011.70 hPa90.00 %9.72 km/hW3.00 °C3.70 °C0.52
21:45:005.20 °C1011.90 hPa91.00 %3.90 °C0.52
21:30:005.10 °C1011.80 hPa91.00 %6.48 km/hNW3.70 °C3.80 °C0.52
21:15:005.00 °C1011.70 hPa91.00 %18.00 km/hWNW1.30 °C3.70 °C0.52
21:00:004.90 °C1011.50 hPa91.00 %7.20 km/hWSW3.20 °C3.60 °C0.52
20:45:004.80 °C1011.60 hPa91.00 %7.20 km/hW3.10 °C3.50 °C0.52
20:30:004.60 °C1011.60 hPa91.00 %3.30 °C0.52
20:15:004.60 °C1011.60 hPa91.00 %7.56 km/hNNW2.80 °C3.30 °C0.52
20:00:004.60 °C1011.60 hPa91.00 %9.00 km/hSSW2.40 °C3.30 °C0.52
19:45:004.60 °C1011.60 hPa91.00 %6.12 km/hWNW3.20 °C3.30 °C0.52
19:30:004.70 °C1011.70 hPa91.00 %5.40 km/hWNW3.60 °C3.40 °C0.52
19:15:004.60 °C1011.80 hPa91.00 %7.56 km/hSW2.80 °C3.30 °C0.52
19:00:004.60 °C1011.80 hPa91.00 %6.84 km/hSW3.00 °C3.30 °C0.52
18:45:004.50 °C1011.90 hPa91.00 %6.84 km/hWSW2.90 °C3.20 °C0.52
18:30:004.50 °C1011.70 hPa91.00 %14.40 km/hWSW1.20 °C3.20 °C0.52
18:15:004.50 °C1011.70 hPa91.00 %9.00 km/hWSW2.30 °C3.20 °C0.52
18:00:004.40 °C1011.90 hPa91.00 %11.88 km/hWNW1.60 °C3.10 °C0.52
17:45:004.40 °C1011.70 hPa91.00 %4.68 km/hW4.40 °C3.10 °C0.52
17:30:004.30 °C1011.70 hPa91.00 %3.00 °C0.52
17:15:004.30 °C1011.80 hPa91.00 %19.08 km/hSSW0.30 °C3.00 °C0.52
17:00:004.10 °C1011.70 hPa91.00 %2.80 °C0.52
16:45:004.10 °C1011.90 hPa90.00 %2.60 °C0.52
16:30:004.20 °C1011.90 hPa89.00 %10.44 km/hWSW1.60 °C2.60 °C 
16:15:004.30 °C1011.90 hPa89.00 %4.68 km/hWNW4.30 °C2.70 °C 
16:00:004.40 °C1012.10 hPa88.00 %5.76 km/hWSW3.10 °C2.60 °C 
15:45:004.50 °C1012.10 hPa87.00 %11.16 km/hSW1.80 °C2.50 °C 
15:30:004.60 °C1012.00 hPa86.00 %10.08 km/hWSW2.20 °C2.50 °C 
15:15:004.40 °C1012.00 hPa86.00 %7.92 km/hWSW2.50 °C2.30 °C 
15:00:004.30 °C1012.20 hPa85.00 %5.04 km/hWSW3.30 °C2.00 °C 
14:45:004.40 °C1012.20 hPa85.00 %4.68 km/hN4.40 °C2.10 °C 
14:30:004.30 °C1012.20 hPa85.00 %2.00 °C 
14:15:004.20 °C1012.20 hPa85.00 %1.90 °C 
14:00:004.10 °C1012.30 hPa85.00 %1.80 °C 
13:45:004.10 °C1012.40 hPa84.00 %1.60 °C 
13:30:004.10 °C1012.10 hPa84.00 %20.16 km/hWSW-0.10 °C1.60 °C 
13:15:004.00 °C1012.20 hPa84.00 %1.50 °C 
13:00:003.90 °C1012.20 hPa84.00 %1.40 °C 
12:45:003.90 °C1012.10 hPa84.00 %11.88 km/hSSW0.90 °C1.40 °C 
12:30:003.60 °C1012.40 hPa84.00 %2.52 km/hWNW3.60 °C1.20 °C 
12:15:003.30 °C1012.30 hPa84.00 %5.04 km/hSW2.10 °C0.90 °C 
12:00:003.10 °C1012.50 hPa84.00 %0.70 °C 
11:45:002.80 °C1012.70 hPa85.00 %11.52 km/hWSW-0.30 °C0.50 °C 
11:30:002.50 °C1012.80 hPa85.00 %10.08 km/hWSW-0.30 °C0.20 °C 
11:15:002.40 °C1013.10 hPa85.00 %0.10 °C 
11:00:002.50 °C1013.30 hPa84.00 %0.10 °C 
10:45:002.50 °C1013.40 hPa84.00 %15.48 km/hWNW-1.40 °C0.10 °C 
10:30:002.60 °C1013.50 hPa84.00 %8.64 km/hWSW0.10 °C0.20 °C 
10:15:002.80 °C1013.10 hPa84.00 %5.40 km/hW1.40 °C0.40 °C 
10:00:002.90 °C1012.90 hPa84.00 %0.50 °C 
09:45:002.90 °C1012.90 hPa84.00 %4.32 km/hWNW2.90 °C0.50 °C 
09:30:002.90 °C1012.80 hPa84.00 %7.56 km/hW0.80 °C0.50 °C 
09:15:002.90 °C1012.70 hPa84.00 %6.84 km/hW1.00 °C0.50 °C 
09:00:002.90 °C1012.80 hPa84.00 %3.24 km/hWNW2.90 °C0.50 °C 
08:45:002.90 °C1012.90 hPa83.00 %0.30 °C 
08:30:002.90 °C1012.70 hPa83.00 %8.64 km/hWSW0.50 °C0.30 °C 
08:15:003.10 °C1012.70 hPa82.00 %0.30 °C 
08:00:003.20 °C1012.40 hPa83.00 %0.60 °C 
07:45:003.30 °C1012.30 hPa83.00 %7.92 km/hWSW1.20 °C0.70 °C 
07:30:003.40 °C1012.40 hPa83.00 %0.80 °C 
07:15:003.50 °C1012.30 hPa83.00 %7.56 km/hWNW1.50 °C0.90 °C 
07:00:003.50 °C1012.30 hPa83.00 %0.90 °C 
06:45:003.60 °C1012.20 hPa82.00 %0.80 °C 
06:30:003.60 °C1012.20 hPa82.00 %8.28 km/hWSW1.40 °C0.80 °C 
06:15:003.50 °C1012.30 hPa83.00 %5.76 km/hNO2.10 °C0.90 °C 
06:00:003.60 °C1012.50 hPa83.00 %7.92 km/hWSW1.50 °C1.00 °C 
05:45:003.80 °C1012.50 hPa82.00 %1.00 °C 
05:30:004.20 °C1012.50 hPa82.00 %7.92 km/hWNW2.20 °C1.40 °C 
05:15:004.50 °C1012.60 hPa82.00 %6.48 km/hWNW3.00 °C1.70 °C 
05:00:004.60 °C1012.50 hPa82.00 %5.76 km/hSW3.30 °C1.80 °C 
04:45:004.80 °C1012.60 hPa83.00 %10.44 km/hWNW2.30 °C2.20 °C 
04:30:004.90 °C1012.80 hPa83.00 %0.72 km/hW4.90 °C2.30 °C 
04:15:005.00 °C1013.00 hPa83.00 %12.24 km/hWSW2.20 °C2.40 °C 
04:00:005.30 °C1012.90 hPa82.00 %2.52 km/hWSW5.30 °C2.50 °C 
03:45:005.40 °C1013.20 hPa82.00 %8.64 km/hW3.40 °C2.60 °C 
03:30:005.60 °C1013.30 hPa82.00 %4.32 km/hW5.60 °C2.80 °C 
03:15:005.80 °C1013.50 hPa81.00 %11.16 km/hWNW3.40 °C2.80 °C 
03:00:005.80 °C1013.60 hPa82.00 %14.76 km/hWSW2.80 °C3.00 °C 
02:45:005.90 °C1013.80 hPa82.00 %13.32 km/hWSW3.10 °C3.10 °C 
02:30:005.90 °C1013.90 hPa82.00 %3.10 °C 
02:15:006.10 °C1013.90 hPa82.00 %9.72 km/hNW4.00 °C3.30 °C 
02:00:006.20 °C1014.20 hPa82.00 %4.32 km/hSW6.20 °C3.40 °C 
01:45:006.30 °C1014.20 hPa83.00 %3.60 °C 
01:30:006.30 °C1014.20 hPa83.00 %9.00 km/hNW4.40 °C3.60 °C 
01:15:006.30 °C1014.30 hPa83.00 %6.12 km/hWNW5.20 °C3.60 °C 
01:00:006.30 °C1014.40 hPa84.00 %3.80 °C 
00:45:006.40 °C1014.60 hPa84.00 %3.90 °C 
00:30:006.40 °C1014.60 hPa84.00 %11.88 km/hNW4.00 °C3.90 °C 
00:15:006.40 °C1014.70 hPa85.00 %7.20 km/hWNW5.00 °C4.10 °C 
00:00:006.40 °C1014.70 hPa85.00 %4.32 km/hWNW6.40 °C4.10 °C 

Permanenter Link zu dieser Seite: Wetter im Erzgebirge am 24.12.2014
Performance-Info: Die Erstellung der Seite / Statistik(en) / Tabelle(n) erforderte 5 Datenbankserver-Abfrage(n) und dauerte 92 Millisekunden. (Dieser Messwert ist von der Gesamt-Auslastung des Servers abhängig.)
Erzgebirge - Wetter | Erzgebirge - Wetter (Mobilgeräte) | Komplette Klimadatenbank